sensor_id;sensor_type;location;lat;lon;timestamp;P1;durP1;ratioP1;P2;durP2;ratioP2
43345;SDS011;28937;51.160;4.146;2023-01-13T00:01:16;15.95;;;3.47;;
43345;SDS011;28937;51.160;4.146;2023-01-13T00:03:46;19.88;;;4.20;;
43345;SDS011;28937;51.160;4.146;2023-01-13T00:06:13;21.33;;;3.70;;
43345;SDS011;28937;51.160;4.146;2023-01-13T00:08:41;19.67;;;3.38;;
43345;SDS011;28937;51.160;4.146;2023-01-13T00:11:08;15.52;;;3.53;;
43345;SDS011;28937;51.160;4.146;2023-01-13T00:13:34;15.82;;;3.67;;
43345;SDS011;28937;51.160;4.146;2023-01-13T00:16:02;14.60;;;3.75;;
43345;SDS011;28937;51.160;4.146;2023-01-13T00:18:32;20.15;;;3.97;;
43345;SDS011;28937;51.160;4.146;2023-01-13T00:23:26;19.40;;;3.97;;
43345;SDS011;28937;51.160;4.146;2023-01-13T00:25:56;16.73;;;3.85;;
43345;SDS011;28937;51.160;4.146;2023-01-13T00:28:22;18.08;;;3.88;;
43345;SDS011;28937;51.160;4.146;2023-01-13T00:30:48;21.25;;;4.20;;
43345;SDS011;28937;51.160;4.146;2023-01-13T00:33:14;18.67;;;3.97;;
43345;SDS011;28937;51.160;4.146;2023-01-13T00:35:39;18.48;;;4.57;;
43345;SDS011;28937;51.160;4.146;2023-01-13T00:38:05;23.00;;;5.65;;
43345;SDS011;28937;51.160;4.146;2023-01-13T00:40:30;29.83;;;4.97;;
43345;SDS011;28937;51.160;4.146;2023-01-13T00:42:56;24.73;;;5.10;;
43345;SDS011;28937;51.160;4.146;2023-01-13T00:45:40;21.50;;;5.57;;
43345;SDS011;28937;51.160;4.146;2023-01-13T00:48:05;24.33;;;5.40;;
43345;SDS011;28937;51.160;4.146;2023-01-13T00:50:31;21.75;;;5.00;;
43345;SDS011;28937;51.160;4.146;2023-01-13T00:53:00;22.98;;;5.00;;
43345;SDS011;28937;51.160;4.146;2023-01-13T00:55:26;27.45;;;5.70;;
43345;SDS011;28937;51.160;4.146;2023-01-13T00:57:54;24.30;;;4.60;;
43345;SDS011;28937;51.160;4.146;2023-01-13T01:00:19;20.95;;;4.60;;
43345;SDS011;28937;51.160;4.146;2023-01-13T01:02:45;22.55;;;5.03;;
43345;SDS011;28937;51.160;4.146;2023-01-13T01:05:10;22.40;;;5.20;;
43345;SDS011;28937;51.160;4.146;2023-01-13T01:07:36;22.42;;;5.15;;
43345;SDS011;28937;51.160;4.146;2023-01-13T01:10:01;21.38;;;4.45;;
43345;SDS011;28937;51.160;4.146;2023-01-13T01:12:27;19.73;;;4.38;;
43345;SDS011;28937;51.160;4.146;2023-01-13T01:14:53;22.95;;;4.85;;
43345;SDS011;28937;51.160;4.146;2023-01-13T01:17:18;22.33;;;4.63;;
43345;SDS011;28937;51.160;4.146;2023-01-13T01:19:44;21.75;;;4.43;;
43345;SDS011;28937;51.160;4.146;2023-01-13T01:22:09;13.00;;;3.40;;
43345;SDS011;28937;51.160;4.146;2023-01-13T01:24:35;21.25;;;4.18;;
43345;SDS011;28937;51.160;4.146;2023-01-13T01:27:00;21.75;;;4.38;;
43345;SDS011;28937;51.160;4.146;2023-01-13T01:29:26;20.02;;;4.43;;
43345;SDS011;28937;51.160;4.146;2023-01-13T01:31:51;25.67;;;4.95;;
43345;SDS011;28937;51.160;4.146;2023-01-13T01:34:17;17.83;;;3.63;;
43345;SDS011;28937;51.160;4.146;2023-01-13T01:36:43;22.65;;;4.45;;
43345;SDS011;28937;51.160;4.146;2023-01-13T01:39:08;23.67;;;4.22;;
43345;SDS011;28937;51.160;4.146;2023-01-13T01:41:35;20.95;;;4.10;;
43345;SDS011;28937;51.160;4.146;2023-01-13T01:44:04;15.65;;;3.55;;
43345;SDS011;28937;51.160;4.146;2023-01-13T01:46:51;21.02;;;4.20;;
43345;SDS011;28937;51.160;4.146;2023-01-13T01:49:18;19.88;;;4.00;;
43345;SDS011;28937;51.160;4.146;2023-01-13T01:51:49;21.05;;;3.95;;
43345;SDS011;28937;51.160;4.146;2023-01-13T01:54:23;20.98;;;4.05;;
43345;SDS011;28937;51.160;4.146;2023-01-13T01:56:52;21.30;;;4.83;;
43345;SDS011;28937;51.160;4.146;2023-01-13T01:59:18;17.27;;;4.35;;
43345;SDS011;28937;51.160;4.146;2023-01-13T02:01:44;19.75;;;3.58;;
43345;SDS011;28937;51.160;4.146;2023-01-13T02:04:11;14.25;;;3.25;;
43345;SDS011;28937;51.160;4.146;2023-01-13T02:06:41;16.88;;;4.03;;
43345;SDS011;28937;51.160;4.146;2023-01-13T02:09:08;19.67;;;3.88;;
43345;SDS011;28937;51.160;4.146;2023-01-13T02:11:34;20.38;;;3.83;;
43345;SDS011;28937;51.160;4.146;2023-01-13T02:14:20;20.55;;;4.63;;
43345;SDS011;28937;51.160;4.146;2023-01-13T02:27:53;16.27;;;3.47;;
43345;SDS011;28937;51.160;4.146;2023-01-13T02:30:46;18.83;;;3.80;;
43345;SDS011;28937;51.160;4.146;2023-01-13T02:33:55;13.10;;;3.03;;
43345;SDS011;28937;51.160;4.146;2023-01-13T02:36:29;9.95;;;2.10;;
43345;SDS011;28937;51.160;4.146;2023-01-13T02:39:24;10.35;;;1.77;;
43345;SDS011;28937;51.160;4.146;2023-01-13T02:42:07;9.45;;;1.83;;
43345;SDS011;28937;51.160;4.146;2023-01-13T02:44:57;10.23;;;1.80;;
43345;SDS011;28937;51.160;4.146;2023-01-13T02:47:31;7.72;;;1.23;;
43345;SDS011;28937;51.160;4.146;2023-01-13T02:50:02;6.38;;;1.38;;
43345;SDS011;28937;51.160;4.146;2023-01-13T02:52:32;7.63;;;1.30;;
43345;SDS011;28937;51.160;4.146;2023-01-13T02:55:11;4.53;;;0.77;;
43345;SDS011;28937;51.160;4.146;2023-01-13T02:57:44;8.65;;;1.63;;
43345;SDS011;28937;51.160;4.146;2023-01-13T03:00:12;12.45;;;2.03;;
43345;SDS011;28937;51.160;4.146;2023-01-13T03:02:39;10.18;;;2.10;;
43345;SDS011;28937;51.160;4.146;2023-01-13T03:05:05;13.77;;;2.25;;
43345;SDS011;28937;51.160;4.146;2023-01-13T03:07:43;13.60;;;2.90;;
43345;SDS011;28937;51.160;4.146;2023-01-13T03:10:39;13.05;;;3.00;;
43345;SDS011;28937;51.160;4.146;2023-01-13T03:18:49;11.95;;;3.05;;
43345;SDS011;28937;51.160;4.146;2023-01-13T03:21:50;10.85;;;2.22;;
43345;SDS011;28937;51.160;4.146;2023-01-13T03:24:33;12.73;;;2.40;;
43345;SDS011;28937;51.160;4.146;2023-01-13T03:32:32;12.80;;;2.20;;
43345;SDS011;28937;51.160;4.146;2023-01-13T03:37:42;9.38;;;2.38;;
43345;SDS011;28937;51.160;4.146;2023-01-13T03:40:16;10.88;;;2.75;;
43345;SDS011;28937;51.160;4.146;2023-01-13T03:42:45;14.45;;;2.38;;
43345;SDS011;28937;51.160;4.146;2023-01-13T03:45:34;16.20;;;3.08;;
43345;SDS011;28937;51.160;4.146;2023-01-13T03:48:05;18.70;;;3.17;;
43345;SDS011;28937;51.160;4.146;2023-01-13T03:50:41;14.90;;;2.83;;
43345;SDS011;28937;51.160;4.146;2023-01-13T03:53:13;14.00;;;2.38;;
43345;SDS011;28937;51.160;4.146;2023-01-13T03:55:47;14.32;;;2.92;;
43345;SDS011;28937;51.160;4.146;2023-01-13T03:58:19;16.27;;;2.80;;
43345;SDS011;28937;51.160;4.146;2023-01-13T04:03:37;12.93;;;2.38;;
43345;SDS011;28937;51.160;4.146;2023-01-13T04:06:27;10.80;;;2.92;;
43345;SDS011;28937;51.160;4.146;2023-01-13T04:09:28;13.45;;;2.63;;
43345;SDS011;28937;51.160;4.146;2023-01-13T04:12:06;11.90;;;2.30;;
43345;SDS011;28937;51.160;4.146;2023-01-13T04:14:39;15.60;;;3.00;;
43345;SDS011;28937;51.160;4.146;2023-01-13T04:17:05;14.50;;;2.10;;
43345;SDS011;28937;51.160;4.146;2023-01-13T04:19:31;12.50;;;2.38;;
43345;SDS011;28937;51.160;4.146;2023-01-13T04:21:57;10.38;;;2.00;;
43345;SDS011;28937;51.160;4.146;2023-01-13T04:24:23;11.18;;;2.30;;
43345;SDS011;28937;51.160;4.146;2023-01-13T04:26:49;12.75;;;2.45;;
43345;SDS011;28937;51.160;4.146;2023-01-13T04:29:15;11.98;;;2.72;;
43345;SDS011;28937;51.160;4.146;2023-01-13T04:31:41;12.88;;;2.45;;
43345;SDS011;28937;51.160;4.146;2023-01-13T04:34:07;11.93;;;2.20;;
43345;SDS011;28937;51.160;4.146;2023-01-13T04:36:34;11.05;;;2.28;;
43345;SDS011;28937;51.160;4.146;2023-01-13T04:38:59;11.57;;;2.55;;
43345;SDS011;28937;51.160;4.146;2023-01-13T04:41:25;12.85;;;2.67;;
43345;SDS011;28937;51.160;4.146;2023-01-13T04:43:51;19.50;;;3.08;;
43345;SDS011;28937;51.160;4.146;2023-01-13T04:46:17;12.32;;;2.13;;
43345;SDS011;28937;51.160;4.146;2023-01-13T04:48:42;13.90;;;2.53;;
43345;SDS011;28937;51.160;4.146;2023-01-13T04:51:08;10.00;;;2.15;;
43345;SDS011;28937;51.160;4.146;2023-01-13T04:53:33;11.85;;;1.95;;
43345;SDS011;28937;51.160;4.146;2023-01-13T04:55:59;10.43;;;1.95;;
43345;SDS011;28937;51.160;4.146;2023-01-13T04:58:24;11.57;;;2.33;;
43345;SDS011;28937;51.160;4.146;2023-01-13T05:00:50;13.75;;;2.65;;
43345;SDS011;28937;51.160;4.146;2023-01-13T05:03:15;13.02;;;2.40;;
43345;SDS011;28937;51.160;4.146;2023-01-13T05:05:42;10.48;;;2.25;;
43345;SDS011;28937;51.160;4.146;2023-01-13T05:08:08;14.65;;;2.42;;
43345;SDS011;28937;51.160;4.146;2023-01-13T05:10:33;12.38;;;2.08;;
43345;SDS011;28937;51.160;4.146;2023-01-13T05:12:59;14.13;;;2.63;;
43345;SDS011;28937;51.160;4.146;2023-01-13T05:15:59;14.00;;;2.58;;
43345;SDS011;28937;51.160;4.146;2023-01-13T05:18:47;19.58;;;2.92;;
43345;SDS011;28937;51.160;4.146;2023-01-13T05:21:13;12.77;;;2.08;;
43345;SDS011;28937;51.160;4.146;2023-01-13T05:23:57;14.75;;;3.22;;
43345;SDS011;28937;51.160;4.146;2023-01-13T05:26:41;15.43;;;2.70;;
43345;SDS011;28937;51.160;4.146;2023-01-13T05:29:06;10.40;;;2.15;;
43345;SDS011;28937;51.160;4.146;2023-01-13T05:31:32;16.73;;;2.63;;
43345;SDS011;28937;51.160;4.146;2023-01-13T05:33:58;14.95;;;3.17;;
43345;SDS011;28937;51.160;4.146;2023-01-13T05:36:23;14.00;;;1.98;;
43345;SDS011;28937;51.160;4.146;2023-01-13T05:38:50;13.32;;;3.00;;
43345;SDS011;28937;51.160;4.146;2023-01-13T05:41:15;11.82;;;2.00;;
43345;SDS011;28937;51.160;4.146;2023-01-13T05:43:59;13.88;;;3.05;;
43345;SDS011;28937;51.160;4.146;2023-01-13T05:46:25;14.35;;;2.65;;
43345;SDS011;28937;51.160;4.146;2023-01-13T05:48:50;15.48;;;3.15;;
43345;SDS011;28937;51.160;4.146;2023-01-13T05:51:16;11.75;;;2.63;;
43345;SDS011;28937;51.160;4.146;2023-01-13T05:53:43;13.40;;;2.25;;
43345;SDS011;28937;51.160;4.146;2023-01-13T05:56:09;12.48;;;2.50;;
43345;SDS011;28937;51.160;4.146;2023-01-13T05:58:35;15.48;;;3.47;;
43345;SDS011;28937;51.160;4.146;2023-01-13T06:01:02;11.80;;;2.63;;
43345;SDS011;28937;51.160;4.146;2023-01-13T06:03:29;14.02;;;2.78;;
43345;SDS011;28937;51.160;4.146;2023-01-13T06:05:55;13.18;;;2.83;;
43345;SDS011;28937;51.160;4.146;2023-01-13T06:08:23;11.55;;;3.28;;
43345;SDS011;28937;51.160;4.146;2023-01-13T06:10:49;12.52;;;2.47;;
43345;SDS011;28937;51.160;4.146;2023-01-13T06:13:15;12.57;;;2.75;;
43345;SDS011;28937;51.160;4.146;2023-01-13T06:15:41;14.70;;;2.45;;
43345;SDS011;28937;51.160;4.146;2023-01-13T06:18:07;17.23;;;3.40;;
43345;SDS011;28937;51.160;4.146;2023-01-13T06:20:32;15.73;;;3.08;;
43345;SDS011;28937;51.160;4.146;2023-01-13T06:22:58;12.80;;;2.20;;
43345;SDS011;28937;51.160;4.146;2023-01-13T06:27:58;17.88;;;3.58;;
43345;SDS011;28937;51.160;4.146;2023-01-13T06:30:25;11.43;;;2.00;;
43345;SDS011;28937;51.160;4.146;2023-01-13T06:32:54;15.95;;;3.00;;
43345;SDS011;28937;51.160;4.146;2023-01-13T06:35:23;13.82;;;3.00;;
43345;SDS011;28937;51.160;4.146;2023-01-13T06:37:52;20.85;;;3.67;;
43345;SDS011;28937;51.160;4.146;2023-01-13T06:40:20;19.38;;;3.47;;
43345;SDS011;28937;51.160;4.146;2023-01-13T06:42:47;14.27;;;2.58;;
43345;SDS011;28937;51.160;4.146;2023-01-13T06:45:31;11.27;;;2.90;;
43345;SDS011;28937;51.160;4.146;2023-01-13T06:47:57;18.83;;;3.75;;
43345;SDS011;28937;51.160;4.146;2023-01-13T06:50:23;16.35;;;3.63;;
43345;SDS011;28937;51.160;4.146;2023-01-13T06:52:50;20.30;;;3.17;;
43345;SDS011;28937;51.160;4.146;2023-01-13T06:55:15;16.70;;;3.65;;
43345;SDS011;28937;51.160;4.146;2023-01-13T06:57:51;18.50;;;3.33;;
43345;SDS011;28937;51.160;4.146;2023-01-13T07:00:18;18.98;;;3.60;;
43345;SDS011;28937;51.160;4.146;2023-01-13T07:02:44;17.17;;;3.60;;
43345;SDS011;28937;51.160;4.146;2023-01-13T07:05:10;20.80;;;4.80;;
43345;SDS011;28937;51.160;4.146;2023-01-13T07:07:36;17.88;;;3.97;;
43345;SDS011;28937;51.160;4.146;2023-01-13T07:10:02;24.08;;;4.10;;
43345;SDS011;28937;51.160;4.146;2023-01-13T07:12:27;17.63;;;4.20;;
43345;SDS011;28937;51.160;4.146;2023-01-13T07:14:53;19.20;;;3.25;;
43345;SDS011;28937;51.160;4.146;2023-01-13T07:17:37;15.15;;;3.53;;
43345;SDS011;28937;51.160;4.146;2023-01-13T07:20:03;19.63;;;4.07;;
43345;SDS011;28937;51.160;4.146;2023-01-13T07:22:29;21.45;;;3.78;;
43345;SDS011;28937;51.160;4.146;2023-01-13T07:24:54;23.02;;;4.13;;
43345;SDS011;28937;51.160;4.146;2023-01-13T07:27:20;16.83;;;4.05;;
43345;SDS011;28937;51.160;4.146;2023-01-13T07:29:46;24.50;;;3.90;;
43345;SDS011;28937;51.160;4.146;2023-01-13T07:32:11;17.70;;;3.83;;
43345;SDS011;28937;51.160;4.146;2023-01-13T07:34:37;20.50;;;3.95;;
43345;SDS011;28937;51.160;4.146;2023-01-13T07:37:02;18.85;;;3.60;;
43345;SDS011;28937;51.160;4.146;2023-01-13T07:39:28;17.55;;;3.70;;
43345;SDS011;28937;51.160;4.146;2023-01-13T07:41:53;14.93;;;3.10;;
43345;SDS011;28937;51.160;4.146;2023-01-13T07:44:37;16.70;;;3.00;;
43345;SDS011;28937;51.160;4.146;2023-01-13T07:47:03;17.00;;;3.45;;
43345;SDS011;28937;51.160;4.146;2023-01-13T07:49:29;16.50;;;3.78;;
43345;SDS011;28937;51.160;4.146;2023-01-13T07:51:55;17.60;;;4.00;;
43345;SDS011;28937;51.160;4.146;2023-01-13T07:54:21;15.45;;;3.33;;
43345;SDS011;28937;51.160;4.146;2023-01-13T07:56:46;19.00;;;3.67;;
43345;SDS011;28937;51.160;4.146;2023-01-13T07:59:12;13.88;;;3.75;;
43345;SDS011;28937;51.160;4.146;2023-01-13T08:01:37;13.75;;;3.13;;
43345;SDS011;28937;51.160;4.146;2023-01-13T08:04:03;19.85;;;3.67;;
43345;SDS011;28937;51.160;4.146;2023-01-13T08:06:28;14.35;;;3.13;;
43345;SDS011;28937;51.160;4.146;2023-01-13T08:08:54;14.90;;;3.55;;
43345;SDS011;28937;51.160;4.146;2023-01-13T08:11:19;13.70;;;3.50;;
43345;SDS011;28937;51.160;4.146;2023-01-13T08:13:45;11.05;;;3.03;;
43345;SDS011;28937;51.160;4.146;2023-01-13T08:16:11;12.88;;;2.95;;
43345;SDS011;28937;51.160;4.146;2023-01-13T08:18:38;18.05;;;3.28;;
43345;SDS011;28937;51.160;4.146;2023-01-13T08:21:09;19.15;;;4.30;;
43345;SDS011;28937;51.160;4.146;2023-01-13T08:23:37;16.05;;;3.25;;
43345;SDS011;28937;51.160;4.146;2023-01-13T08:26:04;14.73;;;3.45;;
43345;SDS011;28937;51.160;4.146;2023-01-13T08:28:34;15.68;;;3.30;;
43345;SDS011;28937;51.160;4.146;2023-01-13T08:31:01;20.25;;;3.90;;
43345;SDS011;28937;51.160;4.146;2023-01-13T08:33:29;17.63;;;3.80;;
43345;SDS011;28937;51.160;4.146;2023-01-13T08:35:54;15.90;;;3.38;;
43345;SDS011;28937;51.160;4.146;2023-01-13T08:38:20;17.17;;;4.18;;
43345;SDS011;28937;51.160;4.146;2023-01-13T08:40:46;15.68;;;4.13;;
43345;SDS011;28937;51.160;4.146;2023-01-13T08:43:12;14.35;;;3.15;;
43345;SDS011;28937;51.160;4.146;2023-01-13T08:45:37;11.35;;;3.38;;
43345;SDS011;28937;51.160;4.146;2023-01-13T08:48:03;15.43;;;3.08;;
43345;SDS011;28937;51.160;4.146;2023-01-13T08:50:29;16.80;;;4.20;;
43345;SDS011;28937;51.160;4.146;2023-01-13T08:52:55;13.38;;;3.92;;
43345;SDS011;28937;51.160;4.146;2023-01-13T08:55:20;14.18;;;3.08;;
43345;SDS011;28937;51.160;4.146;2023-01-13T08:57:46;19.65;;;3.35;;
43345;SDS011;28937;51.160;4.146;2023-01-13T09:00:12;17.65;;;3.67;;
43345;SDS011;28937;51.160;4.146;2023-01-13T09:02:37;14.90;;;3.70;;
43345;SDS011;28937;51.160;4.146;2023-01-13T09:05:06;18.42;;;3.85;;
43345;SDS011;28937;51.160;4.146;2023-01-13T09:07:34;17.35;;;3.80;;
43345;SDS011;28937;51.160;4.146;2023-01-13T09:10:01;14.57;;;3.92;;
43345;SDS011;28937;51.160;4.146;2023-01-13T09:12:27;18.50;;;4.50;;
43345;SDS011;28937;51.160;4.146;2023-01-13T09:15:11;15.15;;;3.08;;
43345;SDS011;28937;51.160;4.146;2023-01-13T09:17:37;15.48;;;4.35;;
43345;SDS011;28937;51.160;4.146;2023-01-13T09:20:03;18.80;;;4.20;;
43345;SDS011;28937;51.160;4.146;2023-01-13T09:22:29;16.00;;;3.35;;
43345;SDS011;28937;51.160;4.146;2023-01-13T09:24:55;12.75;;;3.72;;
43345;SDS011;28937;51.160;4.146;2023-01-13T09:27:21;12.23;;;3.00;;
43345;SDS011;28937;51.160;4.146;2023-01-13T09:29:47;19.65;;;4.95;;
43345;SDS011;28937;51.160;4.146;2023-01-13T09:32:13;16.58;;;3.90;;
43345;SDS011;28937;51.160;4.146;2023-01-13T09:34:39;14.82;;;3.65;;
43345;SDS011;28937;51.160;4.146;2023-01-13T09:37:23;15.63;;;3.38;;
43345;SDS011;28937;51.160;4.146;2023-01-13T09:39:50;17.38;;;3.92;;
43345;SDS011;28937;51.160;4.146;2023-01-13T09:45:46;14.55;;;3.58;;
43345;SDS011;28937;51.160;4.146;2023-01-13T09:48:35;14.75;;;3.17;;
43345;SDS011;28937;51.160;4.146;2023-01-13T09:51:50;17.05;;;3.90;;
43345;SDS011;28937;51.160;4.146;2023-01-13T09:56:40;15.07;;;3.80;;
43345;SDS011;28937;51.160;4.146;2023-01-13T09:59:06;21.48;;;4.38;;
43345;SDS011;28937;51.160;4.146;2023-01-13T10:01:39;16.60;;;3.85;;
43345;SDS011;28937;51.160;4.146;2023-01-13T10:04:12;12.57;;;3.22;;
43345;SDS011;28937;51.160;4.146;2023-01-13T10:06:39;20.00;;;4.47;;
43345;SDS011;28937;51.160;4.146;2023-01-13T10:09:31;13.13;;;3.20;;
43345;SDS011;28937;51.160;4.146;2023-01-13T10:11:58;12.77;;;4.00;;
43345;SDS011;28937;51.160;4.146;2023-01-13T10:14:50;14.45;;;3.63;;
43345;SDS011;28937;51.160;4.146;2023-01-13T10:23:05;10.85;;;3.08;;
43345;SDS011;28937;51.160;4.146;2023-01-13T10:28:12;12.38;;;3.55;;
43345;SDS011;28937;51.160;4.146;2023-01-13T10:30:40;13.35;;;3.53;;
43345;SDS011;28937;51.160;4.146;2023-01-13T10:33:14;14.02;;;3.58;;
43345;SDS011;28937;51.160;4.146;2023-01-13T10:46:15;13.23;;;3.42;;
43345;SDS011;28937;51.160;4.146;2023-01-13T10:53:44;15.68;;;3.35;;
43345;SDS011;28937;51.160;4.146;2023-01-13T10:56:18;12.50;;;2.97;;
43345;SDS011;28937;51.160;4.146;2023-01-13T10:58:44;10.18;;;3.13;;
43345;SDS011;28937;51.160;4.146;2023-01-13T11:01:28;16.33;;;3.33;;
43345;SDS011;28937;51.160;4.146;2023-01-13T11:03:54;15.93;;;3.53;;
43345;SDS011;28937;51.160;4.146;2023-01-13T11:06:24;11.40;;;2.95;;
43345;SDS011;28937;51.160;4.146;2023-01-13T11:08:53;10.90;;;3.08;;
43345;SDS011;28937;51.160;4.146;2023-01-13T11:11:39;7.32;;;2.17;;
43345;SDS011;28937;51.160;4.146;2023-01-13T11:14:12;16.73;;;3.42;;
43345;SDS011;28937;51.160;4.146;2023-01-13T11:22:47;12.00;;;2.83;;
43345;SDS011;28937;51.160;4.146;2023-01-13T11:25:18;12.75;;;2.75;;
43345;SDS011;28937;51.160;4.146;2023-01-13T11:33:31;16.33;;;3.30;;
43345;SDS011;28937;51.160;4.146;2023-01-13T11:36:15;13.13;;;2.83;;
43345;SDS011;28937;51.160;4.146;2023-01-13T11:44:16;11.70;;;3.00;;
43345;SDS011;28937;51.160;4.146;2023-01-13T11:46:47;8.27;;;2.22;;
43345;SDS011;28937;51.160;4.146;2023-01-13T11:49:20;13.23;;;2.83;;
43345;SDS011;28937;51.160;4.146;2023-01-13T11:54:49;13.32;;;3.03;;
43345;SDS011;28937;51.160;4.146;2023-01-13T11:57:33;8.32;;;2.50;;
43345;SDS011;28937;51.160;4.146;2023-01-13T12:06:02;11.98;;;2.55;;
43345;SDS011;28937;51.160;4.146;2023-01-13T12:11:09;11.60;;;2.55;;
43345;SDS011;28937;51.160;4.146;2023-01-13T12:27:32;8.90;;;2.45;;
43345;SDS011;28937;51.160;4.146;2023-01-13T12:29:58;13.70;;;2.55;;
43345;SDS011;28937;51.160;4.146;2023-01-13T12:32:33;9.10;;;2.45;;
43345;SDS011;28937;51.160;4.146;2023-01-13T12:35:14;12.15;;;2.90;;
43345;SDS011;28937;51.160;4.146;2023-01-13T12:38:14;9.48;;;2.60;;
43345;SDS011;28937;51.160;4.146;2023-01-13T12:43:32;13.65;;;3.33;;
43345;SDS011;28937;51.160;4.146;2023-01-13T12:53:56;8.02;;;2.28;;
43345;SDS011;28937;51.160;4.146;2023-01-13T12:59:24;11.15;;;2.63;;
43345;SDS011;28937;51.160;4.146;2023-01-13T13:01:40;10.45;;;2.75;;
43345;SDS011;28937;51.160;4.146;2023-01-13T13:04:08;12.00;;;2.22;;
43345;SDS011;28937;51.160;4.146;2023-01-13T13:06:50;10.93;;;2.22;;
43345;SDS011;28937;51.160;4.146;2023-01-13T13:11:45;12.68;;;2.40;;
43345;SDS011;28937;51.160;4.146;2023-01-13T13:17:02;10.30;;;2.70;;
43345;SDS011;28937;51.160;4.146;2023-01-13T13:41:13;8.60;;;2.55;;
43345;SDS011;28937;51.160;4.146;2023-01-13T13:44:02;13.65;;;3.08;;
43345;SDS011;28937;51.160;4.146;2023-01-13T13:46:59;12.48;;;2.78;;
43345;SDS011;28937;51.160;4.146;2023-01-13T13:49:46;9.27;;;2.60;;
43345;SDS011;28937;51.160;4.146;2023-01-13T13:54:47;12.25;;;2.50;;
43345;SDS011;28937;51.160;4.146;2023-01-13T13:57:16;15.52;;;3.25;;
43345;SDS011;28937;51.160;4.146;2023-01-13T13:59:50;13.65;;;3.15;;
43345;SDS011;28937;51.160;4.146;2023-01-13T14:02:23;13.50;;;3.15;;
43345;SDS011;28937;51.160;4.146;2023-01-13T14:05:16;11.07;;;2.90;;
43345;SDS011;28937;51.160;4.146;2023-01-13T14:07:46;32.13;;;4.95;;
43345;SDS011;28937;51.160;4.146;2023-01-13T14:10:18;17.58;;;3.13;;
43345;SDS011;28937;51.160;4.146;2023-01-13T14:15:31;15.82;;;3.70;;
43345;SDS011;28937;51.160;4.146;2023-01-13T14:18:02;14.15;;;2.97;;
43345;SDS011;28937;51.160;4.146;2023-01-13T14:20:30;14.07;;;3.08;;
43345;SDS011;28937;51.160;4.146;2023-01-13T14:22:58;18.67;;;3.33;;
43345;SDS011;28937;51.160;4.146;2023-01-13T14:27:53;14.77;;;2.85;;
43345;SDS011;28937;51.160;4.146;2023-01-13T14:30:20;13.13;;;2.80;;
43345;SDS011;28937;51.160;4.146;2023-01-13T14:32:48;11.13;;;2.80;;
43345;SDS011;28937;51.160;4.146;2023-01-13T14:35:15;13.57;;;3.17;;
43345;SDS011;28937;51.160;4.146;2023-01-13T14:37:41;12.02;;;2.97;;
43345;SDS011;28937;51.160;4.146;2023-01-13T14:43:07;9.20;;;2.67;;
43345;SDS011;28937;51.160;4.146;2023-01-13T14:45:37;19.88;;;3.28;;
43345;SDS011;28937;51.160;4.146;2023-01-13T14:48:08;12.25;;;2.63;;
43345;SDS011;28937;51.160;4.146;2023-01-13T14:50:34;9.63;;;2.60;;
43345;SDS011;28937;51.160;4.146;2023-01-13T14:53:00;13.20;;;2.90;;
43345;SDS011;28937;51.160;4.146;2023-01-13T15:00:44;12.88;;;2.80;;
43345;SDS011;28937;51.160;4.146;2023-01-13T15:03:12;15.02;;;3.10;;
43345;SDS011;28937;51.160;4.146;2023-01-13T15:05:38;18.63;;;3.22;;
43345;SDS011;28937;51.160;4.146;2023-01-13T15:13:25;13.70;;;3.35;;
43345;SDS011;28937;51.160;4.146;2023-01-13T15:15:57;8.48;;;2.50;;
43345;SDS011;28937;51.160;4.146;2023-01-13T15:18:25;15.60;;;3.20;;
43345;SDS011;28937;51.160;4.146;2023-01-13T15:20:51;14.15;;;3.00;;
43345;SDS011;28937;51.160;4.146;2023-01-13T15:23:17;13.88;;;3.38;;
43345;SDS011;28937;51.160;4.146;2023-01-13T15:25:44;11.88;;;3.10;;
43345;SDS011;28937;51.160;4.146;2023-01-13T15:28:20;11.88;;;3.20;;
43345;SDS011;28937;51.160;4.146;2023-01-13T15:30:48;15.75;;;3.60;;
43345;SDS011;28937;51.160;4.146;2023-01-13T15:33:15;13.40;;;3.17;;
43345;SDS011;28937;51.160;4.146;2023-01-13T15:35:43;14.05;;;3.03;;
43345;SDS011;28937;51.160;4.146;2023-01-13T15:38:11;12.50;;;3.28;;
43345;SDS011;28937;51.160;4.146;2023-01-13T15:40:38;15.30;;;3.00;;
43345;SDS011;28937;51.160;4.146;2023-01-13T15:43:04;12.80;;;3.28;;
43345;SDS011;28937;51.160;4.146;2023-01-13T15:45:48;15.63;;;3.08;;
43345;SDS011;28937;51.160;4.146;2023-01-13T15:48:33;12.77;;;3.63;;
43345;SDS011;28937;51.160;4.146;2023-01-13T15:50:59;17.88;;;3.10;;
43345;SDS011;28937;51.160;4.146;2023-01-13T15:53:25;11.73;;;2.58;;
43345;SDS011;28937;51.160;4.146;2023-01-13T15:55:51;13.82;;;2.65;;
43345;SDS011;28937;51.160;4.146;2023-01-13T15:58:20;14.10;;;3.10;;
43345;SDS011;28937;51.160;4.146;2023-01-13T16:00:49;13.02;;;2.50;;
43345;SDS011;28937;51.160;4.146;2023-01-13T16:03:15;13.88;;;2.97;;
43345;SDS011;28937;51.160;4.146;2023-01-13T16:05:41;12.63;;;2.67;;
43345;SDS011;28937;51.160;4.146;2023-01-13T16:10:40;14.40;;;3.30;;
43345;SDS011;28937;51.160;4.146;2023-01-13T16:13:06;15.18;;;3.42;;
43345;SDS011;28937;51.160;4.146;2023-01-13T16:15:32;11.40;;;2.72;;
43345;SDS011;28937;51.160;4.146;2023-01-13T16:17:59;12.20;;;2.83;;
43345;SDS011;28937;51.160;4.146;2023-01-13T16:20:27;13.63;;;3.17;;
43345;SDS011;28937;51.160;4.146;2023-01-13T16:22:54;14.82;;;3.42;;
43345;SDS011;28937;51.160;4.146;2023-01-13T16:25:23;12.00;;;3.45;;
43345;SDS011;28937;51.160;4.146;2023-01-13T16:27:50;11.23;;;3.03;;
43345;SDS011;28937;51.160;4.146;2023-01-13T16:30:24;16.67;;;3.42;;
43345;SDS011;28937;51.160;4.146;2023-01-13T16:35:32;10.98;;;3.20;;
43345;SDS011;28937;51.160;4.146;2023-01-13T16:37:59;13.65;;;3.30;;
43345;SDS011;28937;51.160;4.146;2023-01-13T16:40:28;14.43;;;3.03;;
43345;SDS011;28937;51.160;4.146;2023-01-13T16:45:26;15.80;;;3.08;;
43345;SDS011;28937;51.160;4.146;2023-01-13T16:47:52;10.50;;;3.10;;
43345;SDS011;28937;51.160;4.146;2023-01-13T16:50:26;10.88;;;2.70;;
43345;SDS011;28937;51.160;4.146;2023-01-13T16:52:59;13.35;;;3.38;;
43345;SDS011;28937;51.160;4.146;2023-01-13T16:55:25;10.45;;;2.47;;
43345;SDS011;28937;51.160;4.146;2023-01-13T16:57:52;14.18;;;3.53;;
43345;SDS011;28937;51.160;4.146;2023-01-13T17:00:18;11.85;;;3.25;;
43345;SDS011;28937;51.160;4.146;2023-01-13T17:02:44;14.90;;;3.05;;
43345;SDS011;28937;51.160;4.146;2023-01-13T17:05:10;16.88;;;3.75;;
43345;SDS011;28937;51.160;4.146;2023-01-13T17:07:37;16.75;;;4.00;;
43345;SDS011;28937;51.160;4.146;2023-01-13T17:10:03;12.93;;;3.15;;
43345;SDS011;28937;51.160;4.146;2023-01-13T17:12:29;11.85;;;3.10;;
43345;SDS011;28937;51.160;4.146;2023-01-13T17:14:55;19.08;;;4.03;;
43345;SDS011;28937;51.160;4.146;2023-01-13T17:17:22;11.23;;;3.58;;
43345;SDS011;28937;51.160;4.146;2023-01-13T17:19:50;13.07;;;2.92;;
43345;SDS011;28937;51.160;4.146;2023-01-13T17:22:16;11.98;;;3.08;;
43345;SDS011;28937;51.160;4.146;2023-01-13T17:24:41;15.40;;;3.67;;
43345;SDS011;28937;51.160;4.146;2023-01-13T17:27:07;17.80;;;3.08;;
43345;SDS011;28937;51.160;4.146;2023-01-13T17:29:33;18.35;;;3.50;;
43345;SDS011;28937;51.160;4.146;2023-01-13T17:31:59;13.32;;;3.13;;
43345;SDS011;28937;51.160;4.146;2023-01-13T17:34:25;12.85;;;3.95;;
43345;SDS011;28937;51.160;4.146;2023-01-13T17:36:51;18.50;;;4.75;;
43345;SDS011;28937;51.160;4.146;2023-01-13T17:39:23;15.02;;;4.55;;
43345;SDS011;28937;51.160;4.146;2023-01-13T17:41:53;19.10;;;5.82;;
43345;SDS011;28937;51.160;4.146;2023-01-13T17:44:20;18.08;;;7.07;;
43345;SDS011;28937;51.160;4.146;2023-01-13T17:46:47;22.75;;;7.43;;